createdAt,value
2022-11-27T00:00:10.866Z,8.03
2022-11-27T00:05:14.328Z,6.90
2022-11-27T00:10:17.992Z,7.80
2022-11-27T00:15:22.854Z,8.00
2022-11-27T00:20:29.568Z,8.27
2022-11-27T00:25:33.364Z,7.97
2022-11-27T00:30:38.138Z,7.70
2022-11-27T00:35:41.418Z,7.70
2022-11-27T00:40:44.862Z,7.87
2022-11-27T00:45:51.560Z,7.63
2022-11-27T00:51:00.960Z,7.90
2022-11-27T00:56:04.624Z,7.77
2022-11-27T01:01:09.892Z,7.47
2022-11-27T01:06:13.800Z,7.33
2022-11-27T01:11:19.305Z,6.90
2022-11-27T01:16:26.347Z,6.83
2022-11-27T01:21:32.344Z,6.40
2022-11-27T01:26:35.893Z,6.63
2022-11-27T01:31:41.437Z,6.13
2022-11-27T01:36:45.386Z,6.93
2022-11-27T01:41:49.868Z,7.57
2022-11-27T01:46:57.062Z,7.32
2022-11-27T01:52:03.355Z,6.53
2022-11-27T01:57:09.645Z,7.10
2022-11-27T02:02:14.450Z,7.27
2022-11-27T02:07:17.854Z,7.23
2022-11-27T02:12:26.144Z,7.13
2022-11-27T02:17:37.810Z,6.53
2022-11-27T02:22:57.972Z,6.93
2022-11-27T02:28:15.728Z,7.23
2022-11-27T02:33:23.144Z,6.93
2022-11-27T02:38:31.716Z,6.90
2022-11-27T02:43:38.985Z,6.87
2022-11-27T02:48:48.153Z,6.43
2022-11-27T02:53:55.192Z,7.37
2022-11-27T02:59:02.964Z,6.60
2022-11-27T03:04:11.292Z,6.77
2022-11-27T03:09:19.403Z,6.97
2022-11-27T03:14:24.914Z,7.23
2022-11-27T03:19:38.668Z,6.70
2022-11-27T03:24:42.498Z,6.50
2022-11-27T03:29:51.279Z,7.32
2022-11-27T03:34:56.838Z,6.70
2022-11-27T03:40:00.185Z,6.80
2022-11-27T03:45:09.826Z,6.03
2022-11-27T03:50:34.887Z,6.60
2022-11-27T04:00:46.908Z,5.93
2022-11-27T04:05:51.637Z,6.72
2022-11-27T04:16:02.344Z,6.13
2022-11-27T04:21:07.483Z,6.03
2022-11-27T04:26:11.030Z,6.77
2022-11-27T04:31:14.613Z,6.60
2022-11-27T04:36:19.251Z,5.60
2022-11-27T04:41:22.656Z,7.20
2022-11-27T04:46:25.978Z,6.00
2022-11-27T04:51:30.664Z,6.30
2022-11-27T05:01:37.288Z,6.50
2022-11-27T05:06:42.091Z,5.70
2022-11-27T05:16:50.227Z,5.85
2022-11-27T05:21:55.646Z,5.20
2022-11-27T05:26:59.372Z,6.07
2022-11-27T05:32:02.851Z,5.23
2022-11-27T05:37:07.566Z,5.60
2022-11-27T05:47:13.925Z,6.20
2022-11-27T05:52:18.619Z,5.80
2022-11-27T05:57:22.165Z,6.93
2022-11-27T06:02:29.412Z,6.53
2022-11-27T06:07:34.502Z,7.33
2022-11-27T06:17:41.188Z,6.60
2022-11-27T06:22:45.981Z,7.57
2022-11-27T06:32:52.742Z,7.17
2022-11-27T06:37:57.453Z,7.65
2022-11-27T06:43:01.065Z,7.32
2022-11-27T06:48:04.511Z,7.28
2022-11-27T06:53:09.165Z,7.78
2022-11-27T06:58:12.485Z,7.40
2022-11-27T07:03:15.885Z,7.78
2022-11-27T07:08:20.807Z,7.25
2022-11-27T07:13:25.414Z,6.57
2022-11-27T07:18:28.704Z,6.53
2022-11-27T07:23:33.523Z,6.45
2022-11-27T07:33:39.990Z,5.65
2022-11-27T07:38:46.776Z,6.53
2022-11-27T07:43:50.541Z,5.57
2022-11-27T07:48:54.116Z,6.70
2022-11-27T07:53:58.903Z,6.55
2022-11-27T08:04:05.390Z,5.93
2022-11-27T08:09:10.054Z,6.00
2022-11-27T08:14:15.012Z,5.20
2022-11-27T08:19:18.187Z,5.85
2022-11-27T08:24:22.992Z,6.40
2022-11-27T08:29:31.185Z,6.40
2022-11-27T08:34:37.318Z,5.93
2022-11-27T08:39:41.944Z,5.80
2022-11-27T08:44:45.137Z,5.47
2022-11-27T08:49:48.550Z,5.53
2022-11-27T08:54:57.351Z,5.57
2022-11-27T09:00:01.216Z,6.00
2022-11-27T09:05:06.832Z,5.72
2022-11-27T09:10:12.125Z,6.45
2022-11-27T09:15:15.597Z,6.40
2022-11-27T09:20:19.650Z,5.85
2022-11-27T09:25:24.327Z,6.27
2022-11-27T09:30:27.536Z,6.63
2022-11-27T09:35:30.933Z,6.05
2022-11-27T09:40:36.265Z,6.47
2022-11-27T09:45:45.693Z,6.45
2022-11-27T09:50:53.437Z,5.93
2022-11-27T09:56:00.255Z,6.72
2022-11-27T10:01:10.755Z,6.88
2022-11-27T10:06:25.629Z,6.15
2022-11-27T10:11:34.209Z,6.43
2022-11-27T10:16:44.686Z,7.25
2022-11-27T10:21:53.757Z,6.95
2022-11-27T10:27:00.490Z,6.05
2022-11-27T10:32:26.743Z,6.88
2022-11-27T10:37:41.218Z,6.20
2022-11-27T10:42:51.042Z,6.13
2022-11-27T10:47:54.361Z,6.57
2022-11-27T10:53:01.573Z,6.68
2022-11-27T10:58:12.434Z,6.65
2022-11-27T11:03:19.252Z,6.63
2022-11-27T11:08:24.565Z,6.88
2022-11-27T11:13:31.004Z,7.18
2022-11-27T11:18:36.693Z,7.20
2022-11-27T11:23:42.435Z,7.40
2022-11-27T11:28:51.903Z,7.85
2022-11-27T11:33:59.953Z,7.28
2022-11-27T11:39:03.342Z,8.23
2022-11-27T11:44:21.453Z,8.35
2022-11-27T11:49:27.367Z,8.43
2022-11-27T11:54:44.127Z,8.13
2022-11-27T11:59:55.817Z,8.35
2022-11-27T12:05:28.204Z,8.35
2022-11-27T12:10:40.364Z,7.78
2022-11-27T12:15:51.626Z,7.68
2022-11-27T12:21:07.916Z,8.68
2022-11-27T12:26:22.601Z,8.57
2022-11-27T12:31:42.004Z,8.02
2022-11-27T12:37:04.141Z,7.93
2022-11-27T12:42:22.158Z,6.60
2022-11-27T12:47:34.952Z,7.55
2022-11-27T12:57:50.758Z,6.72
2022-11-27T13:03:04.154Z,6.93
2022-11-27T13:08:14.774Z,6.95
2022-11-27T13:13:24.578Z,6.65
2022-11-27T13:18:35.217Z,6.18
2022-11-27T13:23:38.900Z,7.32
2022-11-27T13:28:45.843Z,7.20
2022-11-27T13:33:52.388Z,7.82
2022-11-27T13:38:59.307Z,7.93
2022-11-27T13:44:04.880Z,8.45
2022-11-27T13:49:27.700Z,8.10
2022-11-27T13:54:31.362Z,8.25
2022-11-27T13:59:39.159Z,9.25
2022-11-27T14:04:56.104Z,9.13
2022-11-27T14:10:10.138Z,8.57
2022-11-27T14:15:23.981Z,10.20
2022-11-27T14:20:33.732Z,8.80
2022-11-27T14:25:37.546Z,8.90
2022-11-27T14:30:46.043Z,9.47
2022-11-27T14:35:52.446Z,8.27
2022-11-27T14:41:07.978Z,9.30
2022-11-27T14:46:16.587Z,7.93
2022-11-27T14:51:24.543Z,8.30
2022-11-27T14:56:32.686Z,8.18
2022-11-27T15:01:37.444Z,8.60
2022-11-27T15:11:56.819Z,8.15
2022-11-27T15:17:00.899Z,8.80
2022-11-27T15:22:06.668Z,8.90
2022-11-27T15:27:19.110Z,9.18
2022-11-27T15:32:25.586Z,9.23
2022-11-27T15:37:34.686Z,7.57
2022-11-27T15:42:38.550Z,8.90
2022-11-27T15:47:42.747Z,7.97
2022-11-27T15:52:48.835Z,8.20
2022-11-27T15:57:55.666Z,8.50
2022-11-27T16:02:59.445Z,8.55
2022-11-27T16:08:05.938Z,8.80
2022-11-27T16:13:09.992Z,8.90
2022-11-27T16:18:13.714Z,8.63
2022-11-27T16:23:18.519Z,9.27
2022-11-27T16:33:27.243Z,8.73
2022-11-27T16:38:34.351Z,8.00
2022-11-27T16:43:42.170Z,7.80
2022-11-27T16:48:47.010Z,7.80
2022-11-27T16:59:01.156Z,8.10
2022-11-27T17:04:09.323Z,7.82
2022-11-27T17:09:17.117Z,8.23
2022-11-27T17:14:23.183Z,9.15
2022-11-27T17:19:30.272Z,7.93
2022-11-27T17:24:36.445Z,8.10
2022-11-27T17:29:41.157Z,7.47
2022-11-27T17:34:45.603Z,7.53
2022-11-27T17:39:51.033Z,9.27
2022-11-27T17:44:57.790Z,8.65
2022-11-27T17:50:04.673Z,8.57
2022-11-27T17:55:13.089Z,9.32
2022-11-27T18:00:18.904Z,9.00
2022-11-27T18:05:24.055Z,9.10
2022-11-27T18:10:31.507Z,9.07
2022-11-27T18:15:35.896Z,9.25
2022-11-27T18:20:39.400Z,9.77
2022-11-27T18:25:48.841Z,8.43
2022-11-27T18:30:53.211Z,9.35
2022-11-27T18:36:00.113Z,9.93
2022-11-27T18:41:10.207Z,10.38
2022-11-27T18:46:15.325Z,10.75
2022-11-27T18:51:21.010Z,10.05
2022-11-27T18:56:35.553Z,10.05
2022-11-27T19:01:42.232Z,11.38
2022-11-27T19:06:46.655Z,11.18
2022-11-27T19:11:52.037Z,11.83
2022-11-27T19:16:59.080Z,12.18
2022-11-27T19:22:05.306Z,13.05
2022-11-27T19:27:10.184Z,11.90
2022-11-27T19:32:13.641Z,12.98
2022-11-27T19:37:33.154Z,12.70
2022-11-27T19:42:38.705Z,12.20
2022-11-27T19:52:45.513Z,12.05
2022-11-27T19:57:50.728Z,12.05
2022-11-27T20:02:54.112Z,12.82
2022-11-27T20:07:57.943Z,12.38
2022-11-27T20:13:03.026Z,12.47
2022-11-27T20:18:06.587Z,13.55
2022-11-27T20:23:09.880Z,11.98
2022-11-27T20:28:15.147Z,11.68
2022-11-27T20:33:19.992Z,12.45
2022-11-27T20:43:27.746Z,11.77
2022-11-27T20:53:34.585Z,11.63
2022-11-27T20:58:40.577Z,12.85
2022-11-27T21:03:44.053Z,13.23
2022-11-27T21:08:47.538Z,12.77
2022-11-27T21:13:52.733Z,12.52
2022-11-27T21:18:56.776Z,12.85
2022-11-27T21:24:00.702Z,12.77
2022-11-27T21:29:05.780Z,13.33
2022-11-27T21:34:10.411Z,12.13
2022-11-27T21:39:20.296Z,12.18
2022-11-27T21:44:26.109Z,13.40
2022-11-27T21:49:29.477Z,11.98
2022-11-27T21:54:32.830Z,11.70
2022-11-27T21:59:37.546Z,11.52
2022-11-27T22:09:44.392Z,12.98
2022-11-27T22:14:50.780Z,11.40
2022-11-27T22:19:54.204Z,12.27
2022-11-27T22:24:57.697Z,12.57
2022-11-27T22:30:02.447Z,10.95
2022-11-27T22:35:07.553Z,12.13
2022-11-27T22:40:11.519Z,11.70
2022-11-27T22:45:16.646Z,11.77
2022-11-27T22:55:23.044Z,11.63
2022-11-27T23:00:27.673Z,11.45
2022-11-27T23:05:30.876Z,10.07
2022-11-27T23:10:34.382Z,10.32
2022-11-27T23:15:39.168Z,11.23
2022-11-27T23:25:46.530Z,10.65
2022-11-27T23:31:08.809Z,10.52
2022-11-27T23:36:14.530Z,9.88
2022-11-27T23:41:19.188Z,10.50
2022-11-27T23:46:26.485Z,12.25
2022-11-27T23:51:32.899Z,11.25
2022-11-27T23:56:36.512Z,11.77
